sensor_id;sensor_type;location;lat;lon;timestamp;P1;durP1;ratioP1;P2;durP2;ratioP2
71867;SDS011;59738;48.324;14.230;2023-02-22T00:00:10;5.57;;;3.88;;
71867;SDS011;59738;48.324;14.230;2023-02-22T00:02:48;7.77;;;4.10;;
71867;SDS011;59738;48.324;14.230;2023-02-22T00:05:17;7.53;;;4.38;;
71867;SDS011;59738;48.324;14.230;2023-02-22T00:07:47;9.00;;;4.60;;
71867;SDS011;59738;48.324;14.230;2023-02-22T00:10:15;6.20;;;4.20;;
71867;SDS011;59738;48.324;14.230;2023-02-22T00:12:45;5.78;;;3.88;;
71867;SDS011;59738;48.324;14.230;2023-02-22T00:15:14;7.40;;;4.40;;
71867;SDS011;59738;48.324;14.230;2023-02-22T00:17:43;5.88;;;4.03;;
71867;SDS011;59738;48.324;14.230;2023-02-22T00:20:11;7.97;;;4.10;;
71867;SDS011;59738;48.324;14.230;2023-02-22T00:22:40;5.07;;;3.60;;
71867;SDS011;59738;48.324;14.230;2023-02-22T00:25:09;8.52;;;4.45;;
71867;SDS011;59738;48.324;14.230;2023-02-22T00:27:37;9.03;;;4.37;;
71867;SDS011;59738;48.324;14.230;2023-02-22T00:30:06;6.35;;;4.20;;
71867;SDS011;59738;48.324;14.230;2023-02-22T00:32:35;7.70;;;3.83;;
71867;SDS011;59738;48.324;14.230;2023-02-22T00:35:02;7.25;;;3.40;;
71867;SDS011;59738;48.324;14.230;2023-02-22T00:37:33;5.88;;;3.58;;
71867;SDS011;59738;48.324;14.230;2023-02-22T00:40:01;6.30;;;3.57;;
71867;SDS011;59738;48.324;14.230;2023-02-22T00:42:34;7.53;;;3.67;;
71867;SDS011;59738;48.324;14.230;2023-02-22T00:45:03;5.97;;;3.75;;
71867;SDS011;59738;48.324;14.230;2023-02-22T00:47:31;6.32;;;3.80;;
71867;SDS011;59738;48.324;14.230;2023-02-22T00:49:59;7.20;;;3.28;;
71867;SDS011;59738;48.324;14.230;2023-02-22T00:52:27;5.80;;;3.60;;
71867;SDS011;59738;48.324;14.230;2023-02-22T00:54:54;5.38;;;3.80;;
71867;SDS011;59738;48.324;14.230;2023-02-22T00:57:23;8.68;;;3.70;;
71867;SDS011;59738;48.324;14.230;2023-02-22T00:59:52;6.70;;;3.85;;
71867;SDS011;59738;48.324;14.230;2023-02-22T01:02:19;5.65;;;3.80;;
71867;SDS011;59738;48.324;14.230;2023-02-22T01:04:47;7.80;;;4.43;;
71867;SDS011;59738;48.324;14.230;2023-02-22T01:07:15;6.10;;;3.95;;
71867;SDS011;59738;48.324;14.230;2023-02-22T01:09:42;7.45;;;4.32;;
71867;SDS011;59738;48.324;14.230;2023-02-22T01:12:10;5.13;;;3.35;;
71867;SDS011;59738;48.324;14.230;2023-02-22T01:14:39;7.65;;;3.60;;
71867;SDS011;59738;48.324;14.230;2023-02-22T01:17:08;8.40;;;4.70;;
71867;SDS011;59738;48.324;14.230;2023-02-22T01:19:36;7.40;;;4.03;;
71867;SDS011;59738;48.324;14.230;2023-02-22T01:22:07;7.32;;;4.00;;
71867;SDS011;59738;48.324;14.230;2023-02-22T01:24:36;7.90;;;4.60;;
71867;SDS011;59738;48.324;14.230;2023-02-22T01:27:03;6.97;;;4.53;;
71867;SDS011;59738;48.324;14.230;2023-02-22T01:29:31;6.87;;;4.20;;
71867;SDS011;59738;48.324;14.230;2023-02-22T01:31:58;8.63;;;3.78;;
71867;SDS011;59738;48.324;14.230;2023-02-22T01:34:28;7.38;;;3.80;;
71867;SDS011;59738;48.324;14.230;2023-02-22T01:36:58;8.35;;;5.00;;
71867;SDS011;59738;48.324;14.230;2023-02-22T01:39:26;11.07;;;5.30;;
71867;SDS011;59738;48.324;14.230;2023-02-22T01:41:54;8.67;;;5.60;;
71867;SDS011;59738;48.324;14.230;2023-02-22T01:44:25;13.40;;;6.20;;
71867;SDS011;59738;48.324;14.230;2023-02-22T01:46:58;11.52;;;6.05;;
71867;SDS011;59738;48.324;14.230;2023-02-22T01:49:30;13.40;;;7.47;;
71867;SDS011;59738;48.324;14.230;2023-02-22T01:52:00;12.95;;;6.18;;
71867;SDS011;59738;48.324;14.230;2023-02-22T01:54:30;11.27;;;6.13;;
71867;SDS011;59738;48.324;14.230;2023-02-22T01:57:01;11.93;;;6.43;;
71867;SDS011;59738;48.324;14.230;2023-02-22T01:59:31;11.95;;;5.57;;
71867;SDS011;59738;48.324;14.230;2023-02-22T02:02:00;12.07;;;5.72;;
71867;SDS011;59738;48.324;14.230;2023-02-22T02:04:31;8.65;;;5.35;;
71867;SDS011;59738;48.324;14.230;2023-02-22T02:07:00;12.27;;;6.00;;
71867;SDS011;59738;48.324;14.230;2023-02-22T02:09:32;12.25;;;6.30;;
71867;SDS011;59738;48.324;14.230;2023-02-22T02:12:05;10.23;;;5.88;;
71867;SDS011;59738;48.324;14.230;2023-02-22T02:14:35;9.45;;;5.20;;
71867;SDS011;59738;48.324;14.230;2023-02-22T02:17:05;7.93;;;4.80;;
71867;SDS011;59738;48.324;14.230;2023-02-22T02:19:38;9.03;;;4.50;;
71867;SDS011;59738;48.324;14.230;2023-02-22T02:22:17;8.32;;;4.65;;
71867;SDS011;59738;48.324;14.230;2023-02-22T02:25:03;7.30;;;4.57;;
71867;SDS011;59738;48.324;14.230;2023-02-22T02:28:00;7.40;;;4.68;;
71867;SDS011;59738;48.324;14.230;2023-02-22T02:30:49;6.13;;;4.10;;
71867;SDS011;59738;48.324;14.230;2023-02-22T02:33:41;7.90;;;4.57;;
71867;SDS011;59738;48.324;14.230;2023-02-22T02:36:12;6.85;;;4.35;;
71867;SDS011;59738;48.324;14.230;2023-02-22T02:38:44;7.07;;;4.50;;
71867;SDS011;59738;48.324;14.230;2023-02-22T02:41:15;7.80;;;4.70;;
71867;SDS011;59738;48.324;14.230;2023-02-22T02:43:48;7.50;;;4.60;;
71867;SDS011;59738;48.324;14.230;2023-02-22T02:46:19;6.07;;;4.47;;
71867;SDS011;59738;48.324;14.230;2023-02-22T02:48:52;6.63;;;4.85;;
71867;SDS011;59738;48.324;14.230;2023-02-22T02:51:23;7.85;;;4.13;;
71867;SDS011;59738;48.324;14.230;2023-02-22T02:53:52;6.93;;;4.40;;
71867;SDS011;59738;48.324;14.230;2023-02-22T02:56:23;6.88;;;4.45;;
71867;SDS011;59738;48.324;14.230;2023-02-22T02:58:51;7.23;;;4.43;;
71867;SDS011;59738;48.324;14.230;2023-02-22T03:01:28;10.65;;;5.07;;
71867;SDS011;59738;48.324;14.230;2023-02-22T03:04:27;10.85;;;6.18;;
71867;SDS011;59738;48.324;14.230;2023-02-22T03:07:02;7.50;;;4.65;;
71867;SDS011;59738;48.324;14.230;2023-02-22T03:09:40;10.00;;;4.88;;
71867;SDS011;59738;48.324;14.230;2023-02-22T03:12:20;9.47;;;5.00;;
71867;SDS011;59738;48.324;14.230;2023-02-22T03:14:58;12.27;;;5.45;;
71867;SDS011;59738;48.324;14.230;2023-02-22T03:17:33;11.02;;;5.50;;
71867;SDS011;59738;48.324;14.230;2023-02-22T03:20:10;12.70;;;6.70;;
71867;SDS011;59738;48.324;14.230;2023-02-22T03:22:43;11.50;;;5.63;;
71867;SDS011;59738;48.324;14.230;2023-02-22T03:25:16;13.83;;;6.03;;
71867;SDS011;59738;48.324;14.230;2023-02-22T03:27:51;10.65;;;5.45;;
71867;SDS011;59738;48.324;14.230;2023-02-22T03:30:22;9.15;;;5.07;;
71867;SDS011;59738;48.324;14.230;2023-02-22T03:32:55;9.18;;;5.18;;
71867;SDS011;59738;48.324;14.230;2023-02-22T03:35:27;9.38;;;5.78;;
71867;SDS011;59738;48.324;14.230;2023-02-22T03:37:58;10.13;;;6.37;;
71867;SDS011;59738;48.324;14.230;2023-02-22T03:40:28;10.88;;;5.72;;
71867;SDS011;59738;48.324;14.230;2023-02-22T03:42:59;9.65;;;4.90;;
71867;SDS011;59738;48.324;14.230;2023-02-22T03:45:31;7.75;;;4.60;;
71867;SDS011;59738;48.324;14.230;2023-02-22T03:48:02;7.47;;;4.80;;
71867;SDS011;59738;48.324;14.230;2023-02-22T03:50:37;9.37;;;5.40;;
71867;SDS011;59738;48.324;14.230;2023-02-22T03:53:06;8.15;;;4.18;;
71867;SDS011;59738;48.324;14.230;2023-02-22T03:55:38;9.07;;;4.13;;
71867;SDS011;59738;48.324;14.230;2023-02-22T03:58:08;8.48;;;4.32;;
71867;SDS011;59738;48.324;14.230;2023-02-22T04:00:38;11.55;;;6.70;;
71867;SDS011;59738;48.324;14.230;2023-02-22T04:03:09;11.03;;;5.00;;
71867;SDS011;59738;48.324;14.230;2023-02-22T04:05:39;12.35;;;5.30;;
71867;SDS011;59738;48.324;14.230;2023-02-22T04:08:07;9.00;;;5.60;;
71867;SDS011;59738;48.324;14.230;2023-02-22T04:10:35;9.75;;;5.82;;
71867;SDS011;59738;48.324;14.230;2023-02-22T04:13:03;9.75;;;5.53;;
71867;SDS011;59738;48.324;14.230;2023-02-22T04:15:33;12.90;;;5.47;;
71867;SDS011;59738;48.324;14.230;2023-02-22T04:18:04;12.25;;;6.60;;
71867;SDS011;59738;48.324;14.230;2023-02-22T04:20:31;10.63;;;5.88;;
71867;SDS011;59738;48.324;14.230;2023-02-22T04:23:13;12.23;;;5.10;;
71867;SDS011;59738;48.324;14.230;2023-02-22T04:25:42;8.95;;;5.35;;
71867;SDS011;59738;48.324;14.230;2023-02-22T04:28:10;9.00;;;4.97;;
71867;SDS011;59738;48.324;14.230;2023-02-22T04:30:43;11.20;;;6.00;;
71867;SDS011;59738;48.324;14.230;2023-02-22T04:33:14;12.43;;;6.47;;
71867;SDS011;59738;48.324;14.230;2023-02-22T04:35:42;10.55;;;5.90;;
71867;SDS011;59738;48.324;14.230;2023-02-22T04:38:09;9.95;;;5.85;;
71867;SDS011;59738;48.324;14.230;2023-02-22T04:40:40;11.70;;;6.87;;
71867;SDS011;59738;48.324;14.230;2023-02-22T04:43:07;12.13;;;6.78;;
71867;SDS011;59738;48.324;14.230;2023-02-22T04:45:35;11.57;;;7.05;;
71867;SDS011;59738;48.324;14.230;2023-02-22T04:48:05;11.93;;;6.97;;
71867;SDS011;59738;48.324;14.230;2023-02-22T04:50:32;13.32;;;7.82;;
71867;SDS011;59738;48.324;14.230;2023-02-22T04:53:02;15.30;;;7.43;;
71867;SDS011;59738;48.324;14.230;2023-02-22T04:55:30;17.65;;;7.65;;
71867;SDS011;59738;48.324;14.230;2023-02-22T04:57:58;11.05;;;6.63;;
71867;SDS011;59738;48.324;14.230;2023-02-22T05:00:26;13.85;;;6.50;;
71867;SDS011;59738;48.324;14.230;2023-02-22T05:02:58;9.38;;;6.07;;
71867;SDS011;59738;48.324;14.230;2023-02-22T05:05:26;15.57;;;6.17;;
71867;SDS011;59738;48.324;14.230;2023-02-22T05:07:53;12.18;;;6.13;;
71867;SDS011;59738;48.324;14.230;2023-02-22T05:10:21;14.90;;;6.60;;
71867;SDS011;59738;48.324;14.230;2023-02-22T05:12:49;16.33;;;6.15;;
71867;SDS011;59738;48.324;14.230;2023-02-22T05:15:19;13.90;;;5.90;;
71867;SDS011;59738;48.324;14.230;2023-02-22T05:17:47;14.20;;;5.90;;
71867;SDS011;59738;48.324;14.230;2023-02-22T05:20:16;11.80;;;5.88;;
71867;SDS011;59738;48.324;14.230;2023-02-22T05:22:48;10.45;;;5.40;;
71867;SDS011;59738;48.324;14.230;2023-02-22T05:25:16;8.35;;;4.70;;
71867;SDS011;59738;48.324;14.230;2023-02-22T05:27:48;7.85;;;4.82;;
71867;SDS011;59738;48.324;14.230;2023-02-22T05:30:16;8.13;;;4.23;;
71867;SDS011;59738;48.324;14.230;2023-02-22T05:32:48;6.80;;;4.00;;
71867;SDS011;59738;48.324;14.230;2023-02-22T05:35:16;6.18;;;4.20;;
71867;SDS011;59738;48.324;14.230;2023-02-22T05:37:43;8.48;;;4.32;;
71867;SDS011;59738;48.324;14.230;2023-02-22T05:40:11;7.50;;;4.28;;
71867;SDS011;59738;48.324;14.230;2023-02-22T05:42:40;7.40;;;4.20;;
71867;SDS011;59738;48.324;14.230;2023-02-22T05:45:08;8.07;;;4.25;;
71867;SDS011;59738;48.324;14.230;2023-02-22T05:47:40;8.40;;;4.78;;
71867;SDS011;59738;48.324;14.230;2023-02-22T05:50:07;9.52;;;5.13;;
71867;SDS011;59738;48.324;14.230;2023-02-22T05:52:35;10.40;;;5.00;;
71867;SDS011;59738;48.324;14.230;2023-02-22T05:55:03;9.43;;;4.10;;
71867;SDS011;59738;48.324;14.230;2023-02-22T05:57:31;7.20;;;4.60;;
71867;SDS011;59738;48.324;14.230;2023-02-22T05:59:59;10.40;;;5.13;;
71867;SDS011;59738;48.324;14.230;2023-02-22T06:02:27;9.30;;;4.80;;
71867;SDS011;59738;48.324;14.230;2023-02-22T06:04:56;6.85;;;4.30;;
71867;SDS011;59738;48.324;14.230;2023-02-22T06:07:23;8.20;;;3.73;;
71867;SDS011;59738;48.324;14.230;2023-02-22T06:09:52;6.20;;;3.83;;
71867;SDS011;59738;48.324;14.230;2023-02-22T06:12:19;6.70;;;3.65;;
71867;SDS011;59738;48.324;14.230;2023-02-22T06:14:47;6.30;;;3.88;;
71867;SDS011;59738;48.324;14.230;2023-02-22T06:17:14;6.20;;;3.70;;
71867;SDS011;59738;48.324;14.230;2023-02-22T06:19:42;5.53;;;4.13;;
71867;SDS011;59738;48.324;14.230;2023-02-22T06:22:13;8.77;;;4.32;;
71867;SDS011;59738;48.324;14.230;2023-02-22T06:24:42;6.57;;;4.22;;
71867;SDS011;59738;48.324;14.230;2023-02-22T06:27:09;8.40;;;4.28;;
71867;SDS011;59738;48.324;14.230;2023-02-22T06:29:37;8.50;;;4.57;;
71867;SDS011;59738;48.324;14.230;2023-02-22T06:32:04;6.40;;;4.03;;
71867;SDS011;59738;48.324;14.230;2023-02-22T06:34:32;8.05;;;4.03;;
71867;SDS011;59738;48.324;14.230;2023-02-22T06:36:59;7.30;;;3.85;;
71867;SDS011;59738;48.324;14.230;2023-02-22T06:39:28;7.18;;;4.28;;
71867;SDS011;59738;48.324;14.230;2023-02-22T06:41:56;5.68;;;3.97;;
71867;SDS011;59738;48.324;14.230;2023-02-22T06:44:23;6.53;;;4.03;;
71867;SDS011;59738;48.324;14.230;2023-02-22T06:46:50;7.68;;;4.40;;
71867;SDS011;59738;48.324;14.230;2023-02-22T06:49:18;10.25;;;4.70;;
71867;SDS011;59738;48.324;14.230;2023-02-22T06:51:46;7.88;;;4.53;;
71867;SDS011;59738;48.324;14.230;2023-02-22T06:54:13;8.32;;;4.55;;
71867;SDS011;59738;48.324;14.230;2023-02-22T06:56:42;7.60;;;5.07;;
71867;SDS011;59738;48.324;14.230;2023-02-22T06:59:10;8.25;;;5.38;;
71867;SDS011;59738;48.324;14.230;2023-02-22T07:01:39;7.95;;;4.80;;
71867;SDS011;59738;48.324;14.230;2023-02-22T07:04:06;7.63;;;4.65;;
71867;SDS011;59738;48.324;14.230;2023-02-22T07:06:34;11.23;;;5.28;;
71867;SDS011;59738;48.324;14.230;2023-02-22T07:09:02;11.30;;;5.10;;
71867;SDS011;59738;48.324;14.230;2023-02-22T07:11:29;11.25;;;5.30;;
71867;SDS011;59738;48.324;14.230;2023-02-22T07:13:58;8.18;;;5.05;;
71867;SDS011;59738;48.324;14.230;2023-02-22T07:16:26;7.32;;;4.43;;
71867;SDS011;59738;48.324;14.230;2023-02-22T07:18:53;8.40;;;4.90;;
71867;SDS011;59738;48.324;14.230;2023-02-22T07:21:21;7.93;;;4.77;;
71867;SDS011;59738;48.324;14.230;2023-02-22T07:23:51;8.85;;;4.80;;
71867;SDS011;59738;48.324;14.230;2023-02-22T07:26:20;8.45;;;4.63;;
71867;SDS011;59738;48.324;14.230;2023-02-22T07:28:48;8.38;;;4.75;;
71867;SDS011;59738;48.324;14.230;2023-02-22T07:31:17;7.05;;;4.40;;
71867;SDS011;59738;48.324;14.230;2023-02-22T07:33:44;9.63;;;4.70;;
71867;SDS011;59738;48.324;14.230;2023-02-22T07:36:12;9.10;;;5.03;;
71867;SDS011;59738;48.324;14.230;2023-02-22T07:38:42;7.75;;;4.85;;
71867;SDS011;59738;48.324;14.230;2023-02-22T07:41:10;8.05;;;4.80;;
71867;SDS011;59738;48.324;14.230;2023-02-22T07:43:37;8.30;;;4.97;;
71867;SDS011;59738;48.324;14.230;2023-02-22T07:46:05;10.80;;;5.23;;
71867;SDS011;59738;48.324;14.230;2023-02-22T07:48:34;8.60;;;5.13;;
71867;SDS011;59738;48.324;14.230;2023-02-22T07:51:01;7.53;;;4.85;;
71867;SDS011;59738;48.324;14.230;2023-02-22T07:53:30;7.57;;;4.75;;
71867;SDS011;59738;48.324;14.230;2023-02-22T07:55:58;9.32;;;6.00;;
71867;SDS011;59738;48.324;14.230;2023-02-22T07:58:27;11.30;;;7.10;;
71867;SDS011;59738;48.324;14.230;2023-02-22T08:00:55;7.47;;;5.20;;
71867;SDS011;59738;48.324;14.230;2023-02-22T08:03:24;6.38;;;4.15;;
71867;SDS011;59738;48.324;14.230;2023-02-22T08:05:54;7.72;;;4.78;;
71867;SDS011;59738;48.324;14.230;2023-02-22T08:08:22;16.92;;;5.60;;
71867;SDS011;59738;48.324;14.230;2023-02-22T08:10:50;8.37;;;4.80;;
71867;SDS011;59738;48.324;14.230;2023-02-22T08:13:18;11.00;;;5.68;;
71867;SDS011;59738;48.324;14.230;2023-02-22T08:15:49;7.53;;;5.05;;
71867;SDS011;59738;48.324;14.230;2023-02-22T08:18:17;10.00;;;6.20;;
71867;SDS011;59738;48.324;14.230;2023-02-22T08:20:46;6.82;;;4.13;;
71867;SDS011;59738;48.324;14.230;2023-02-22T08:23:16;8.23;;;4.63;;
71867;SDS011;59738;48.324;14.230;2023-02-22T08:25:45;13.05;;;4.45;;
71867;SDS011;59738;48.324;14.230;2023-02-22T08:28:13;12.07;;;5.32;;
71867;SDS011;59738;48.324;14.230;2023-02-22T08:30:41;6.95;;;3.85;;
71867;SDS011;59738;48.324;14.230;2023-02-22T08:33:09;11.18;;;5.43;;
71867;SDS011;59738;48.324;14.230;2023-02-22T08:35:39;7.63;;;5.07;;
71867;SDS011;59738;48.324;14.230;2023-02-22T08:38:07;10.52;;;4.78;;
71867;SDS011;59738;48.324;14.230;2023-02-22T08:40:42;6.18;;;4.80;;
71867;SDS011;59738;48.324;14.230;2023-02-22T08:43:10;9.32;;;5.47;;
71867;SDS011;59738;48.324;14.230;2023-02-22T08:45:38;12.88;;;6.25;;
71867;SDS011;59738;48.324;14.230;2023-02-22T08:48:05;15.63;;;7.60;;
71867;SDS011;59738;48.324;14.230;2023-02-22T08:50:33;14.65;;;7.03;;
71867;SDS011;59738;48.324;14.230;2023-02-22T08:53:03;11.82;;;7.53;;
71867;SDS011;59738;48.324;14.230;2023-02-22T08:55:32;12.68;;;7.07;;
71867;SDS011;59738;48.324;14.230;2023-02-22T08:58:02;14.50;;;7.68;;
71867;SDS011;59738;48.324;14.230;2023-02-22T09:00:31;13.87;;;7.30;;
71867;SDS011;59738;48.324;14.230;2023-02-22T09:02:59;14.18;;;7.22;;
71867;SDS011;59738;48.324;14.230;2023-02-22T09:05:27;13.48;;;7.18;;
71867;SDS011;59738;48.324;14.230;2023-02-22T09:07:55;15.63;;;7.50;;
71867;SDS011;59738;48.324;14.230;2023-02-22T09:10:23;13.55;;;7.03;;
71867;SDS011;59738;48.324;14.230;2023-02-22T09:12:53;13.23;;;7.47;;
71867;SDS011;59738;48.324;14.230;2023-02-22T09:15:22;13.52;;;8.30;;
71867;SDS011;59738;48.324;14.230;2023-02-22T09:17:50;14.88;;;7.65;;
71867;SDS011;59738;48.324;14.230;2023-02-22T09:20:19;15.27;;;7.15;;
71867;SDS011;59738;48.324;14.230;2023-02-22T09:22:47;15.20;;;7.15;;
71867;SDS011;59738;48.324;14.230;2023-02-22T09:25:15;14.20;;;7.80;;
71867;SDS011;59738;48.324;14.230;2023-02-22T09:27:45;12.73;;;6.57;;
71867;SDS011;59738;48.324;14.230;2023-02-22T09:30:18;8.88;;;5.43;;
71867;SDS011;59738;48.324;14.230;2023-02-22T09:32:51;10.88;;;5.20;;
71867;SDS011;59738;48.324;14.230;2023-02-22T09:35:20;12.00;;;5.35;;
71867;SDS011;59738;48.324;14.230;2023-02-22T09:37:52;8.97;;;5.17;;
71867;SDS011;59738;48.324;14.230;2023-02-22T09:40:20;13.00;;;7.10;;
71867;SDS011;59738;48.324;14.230;2023-02-22T09:42:57;11.50;;;7.15;;
71867;SDS011;59738;48.324;14.230;2023-02-22T09:45:33;11.10;;;6.57;;
71867;SDS011;59738;48.324;14.230;2023-02-22T09:48:04;10.98;;;5.40;;
71867;SDS011;59738;48.324;14.230;2023-02-22T09:50:33;5.73;;;3.87;;
71867;SDS011;59738;48.324;14.230;2023-02-22T09:53:04;10.52;;;5.32;;
71867;SDS011;59738;48.324;14.230;2023-02-22T09:55:35;7.75;;;4.93;;
71867;SDS011;59738;48.324;14.230;2023-02-22T09:58:05;5.50;;;4.10;;
71867;SDS011;59738;48.324;14.230;2023-02-22T10:00:45;11.00;;;5.60;;
71867;SDS011;59738;48.324;14.230;2023-02-22T10:03:19;7.20;;;4.33;;
71867;SDS011;59738;48.324;14.230;2023-02-22T10:05:50;7.20;;;3.45;;
71867;SDS011;59738;48.324;14.230;2023-02-22T10:08:21;4.00;;;2.88;;
71867;SDS011;59738;48.324;14.230;2023-02-22T10:10:51;5.10;;;2.63;;
71867;SDS011;59738;48.324;14.230;2023-02-22T10:13:27;8.10;;;2.85;;
71867;SDS011;59738;48.324;14.230;2023-02-22T10:16:05;5.60;;;2.77;;
71867;SDS011;59738;48.324;14.230;2023-02-22T10:18:47;4.47;;;3.25;;
71867;SDS011;59738;48.324;14.230;2023-02-22T10:21:32;3.53;;;2.65;;
71867;SDS011;59738;48.324;14.230;2023-02-22T10:24:06;5.10;;;3.30;;
71867;SDS011;59738;48.324;14.230;2023-02-22T10:26:39;4.22;;;3.22;;
71867;SDS011;59738;48.324;14.230;2023-02-22T10:29:10;4.97;;;3.20;;
71867;SDS011;59738;48.324;14.230;2023-02-22T10:31:43;5.13;;;2.75;;
71867;SDS011;59738;48.324;14.230;2023-02-22T10:34:15;6.30;;;3.10;;
71867;SDS011;59738;48.324;14.230;2023-02-22T10:36:45;7.90;;;3.70;;
71867;SDS011;59738;48.324;14.230;2023-02-22T10:39:17;5.70;;;3.00;;
71867;SDS011;59738;48.324;14.230;2023-02-22T10:41:53;4.07;;;3.23;;
71867;SDS011;59738;48.324;14.230;2023-02-22T10:44:22;5.40;;;2.92;;
71867;SDS011;59738;48.324;14.230;2023-02-22T10:46:50;3.08;;;2.72;;
71867;SDS011;59738;48.324;14.230;2023-02-22T10:49:21;5.57;;;3.30;;
71867;SDS011;59738;48.324;14.230;2023-02-22T10:51:53;5.45;;;3.20;;
71867;SDS011;59738;48.324;14.230;2023-02-22T10:54:25;4.20;;;2.80;;
71867;SDS011;59738;48.324;14.230;2023-02-22T10:56:55;4.38;;;2.58;;
71867;SDS011;59738;48.324;14.230;2023-02-22T10:59:27;3.97;;;2.63;;
71867;SDS011;59738;48.324;14.230;2023-02-22T11:01:57;4.57;;;2.92;;
71867;SDS011;59738;48.324;14.230;2023-02-22T11:04:26;3.97;;;2.63;;
71867;SDS011;59738;48.324;14.230;2023-02-22T11:07:07;3.67;;;2.90;;
71867;SDS011;59738;48.324;14.230;2023-02-22T11:09:46;4.18;;;2.45;;
71867;SDS011;59738;48.324;14.230;2023-02-22T11:12:17;3.22;;;2.22;;
71867;SDS011;59738;48.324;14.230;2023-02-22T11:14:46;6.00;;;2.20;;
71867;SDS011;59738;48.324;14.230;2023-02-22T11:17:25;3.05;;;2.47;;
71867;SDS011;59738;48.324;14.230;2023-02-22T11:19:57;2.13;;;1.80;;
71867;SDS011;59738;48.324;14.230;2023-02-22T11:22:26;7.38;;;1.90;;
71867;SDS011;59738;48.324;14.230;2023-02-22T11:24:57;1.98;;;1.63;;
71867;SDS011;59738;48.324;14.230;2023-02-22T11:27:27;2.95;;;2.08;;
71867;SDS011;59738;48.324;14.230;2023-02-22T11:30:05;2.30;;;2.10;;
71867;SDS011;59738;48.324;14.230;2023-02-22T11:32:42;2.47;;;1.70;;
71867;SDS011;59738;48.324;14.230;2023-02-22T11:35:22;2.63;;;1.75;;
71867;SDS011;59738;48.324;14.230;2023-02-22T11:41:13;1.80;;;1.70;;
71867;SDS011;59738;48.324;14.230;2023-02-22T11:43:42;4.35;;;2.20;;
71867;SDS011;59738;48.324;14.230;2023-02-22T11:46:12;2.90;;;2.40;;
71867;SDS011;59738;48.324;14.230;2023-02-22T11:48:41;2.08;;;1.92;;
71867;SDS011;59738;48.324;14.230;2023-02-22T11:51:20;2.95;;;2.05;;
71867;SDS011;59738;48.324;14.230;2023-02-22T11:54:06;2.83;;;1.90;;
71867;SDS011;59738;48.324;14.230;2023-02-22T11:56:47;3.60;;;2.33;;
71867;SDS011;59738;48.324;14.230;2023-02-22T11:59:19;3.10;;;2.33;;
71867;SDS011;59738;48.324;14.230;2023-02-22T12:01:53;2.88;;;2.30;;
71867;SDS011;59738;48.324;14.230;2023-02-22T12:04:28;2.60;;;2.08;;
71867;SDS011;59738;48.324;14.230;2023-02-22T12:07:15;4.55;;;2.70;;
71867;SDS011;59738;48.324;14.230;2023-02-22T12:09:47;2.78;;;2.00;;
71867;SDS011;59738;48.324;14.230;2023-02-22T12:12:20;8.73;;;3.20;;
71867;SDS011;59738;48.324;14.230;2023-02-22T12:14:54;2.88;;;2.28;;
71867;SDS011;59738;48.324;14.230;2023-02-22T12:17:29;3.97;;;2.53;;
71867;SDS011;59738;48.324;14.230;2023-02-22T12:20:01;2.78;;;1.90;;
71867;SDS011;59738;48.324;14.230;2023-02-22T12:22:36;3.28;;;1.90;;
71867;SDS011;59738;48.324;14.230;2023-02-22T12:25:12;4.60;;;2.37;;
71867;SDS011;59738;48.324;14.230;2023-02-22T12:27:45;6.18;;;2.35;;
71867;SDS011;59738;48.324;14.230;2023-02-22T12:30:17;3.42;;;2.10;;
71867;SDS011;59738;48.324;14.230;2023-02-22T12:32:49;3.50;;;1.90;;
71867;SDS011;59738;48.324;14.230;2023-02-22T12:35:18;5.45;;;2.47;;
71867;SDS011;59738;48.324;14.230;2023-02-22T12:37:52;4.10;;;2.23;;
71867;SDS011;59738;48.324;14.230;2023-02-22T12:40:25;2.67;;;2.13;;
71867;SDS011;59738;48.324;14.230;2023-02-22T12:42:58;2.58;;;2.05;;
71867;SDS011;59738;48.324;14.230;2023-02-22T12:45:29;3.92;;;2.15;;
71867;SDS011;59738;48.324;14.230;2023-02-22T12:48:04;3.30;;;2.35;;
71867;SDS011;59738;48.324;14.230;2023-02-22T12:50:39;3.23;;;2.07;;
71867;SDS011;59738;48.324;14.230;2023-02-22T12:53:13;2.25;;;2.00;;
71867;SDS011;59738;48.324;14.230;2023-02-22T12:55:45;2.30;;;2.08;;
71867;SDS011;59738;48.324;14.230;2023-02-22T12:58:17;3.30;;;2.08;;
71867;SDS011;59738;48.324;14.230;2023-02-22T13:00:50;2.08;;;1.73;;
71867;SDS011;59738;48.324;14.230;2023-02-22T13:03:26;2.70;;;2.30;;
71867;SDS011;59738;48.324;14.230;2023-02-22T13:06:00;2.55;;;2.10;;
71867;SDS011;59738;48.324;14.230;2023-02-22T13:08:40;4.15;;;2.55;;
71867;SDS011;59738;48.324;14.230;2023-02-22T13:11:13;2.22;;;2.03;;
71867;SDS011;59738;48.324;14.230;2023-02-22T13:13:45;3.10;;;2.10;;
71867;SDS011;59738;48.324;14.230;2023-02-22T13:16:21;2.77;;;2.47;;
71867;SDS011;59738;48.324;14.230;2023-02-22T13:18:57;3.50;;;2.42;;
71867;SDS011;59738;48.324;14.230;2023-02-22T13:21:30;3.42;;;2.10;;
71867;SDS011;59738;48.324;14.230;2023-02-22T13:24:05;3.00;;;2.30;;
71867;SDS011;59738;48.324;14.230;2023-02-22T13:26:38;3.88;;;2.70;;
71867;SDS011;59738;48.324;14.230;2023-02-22T13:29:11;3.13;;;2.10;;
71867;SDS011;59738;48.324;14.230;2023-02-22T13:31:46;4.40;;;2.45;;
71867;SDS011;59738;48.324;14.230;2023-02-22T13:34:27;3.67;;;2.65;;
71867;SDS011;59738;48.324;14.230;2023-02-22T13:40:22;3.80;;;2.53;;
71867;SDS011;59738;48.324;14.230;2023-02-22T13:43:07;3.40;;;2.13;;
71867;SDS011;59738;48.324;14.230;2023-02-22T13:45:53;4.15;;;2.50;;
71867;SDS011;59738;48.324;14.230;2023-02-22T13:48:40;5.05;;;2.40;;
71867;SDS011;59738;48.324;14.230;2023-02-22T13:51:23;4.63;;;2.30;;
71867;SDS011;59738;48.324;14.230;2023-02-22T13:54:02;2.38;;;2.10;;
71867;SDS011;59738;48.324;14.230;2023-02-22T13:56:33;2.67;;;2.13;;
71867;SDS011;59738;48.324;14.230;2023-02-22T13:59:02;2.65;;;2.00;;
71867;SDS011;59738;48.324;14.230;2023-02-22T14:01:43;3.03;;;2.00;;
71867;SDS011;59738;48.324;14.230;2023-02-22T14:10:36;3.47;;;2.10;;
71867;SDS011;59738;48.324;14.230;2023-02-22T14:13:06;2.45;;;2.17;;
71867;SDS011;59738;48.324;14.230;2023-02-22T14:15:34;3.72;;;2.38;;
71867;SDS011;59738;48.324;14.230;2023-02-22T14:18:02;2.80;;;2.17;;
71867;SDS011;59738;48.324;14.230;2023-02-22T14:20:31;2.65;;;2.03;;
71867;SDS011;59738;48.324;14.230;2023-02-22T14:25:52;6.75;;;2.53;;
71867;SDS011;59738;48.324;14.230;2023-02-22T14:28:36;4.00;;;1.58;;
71867;SDS011;59738;48.324;14.230;2023-02-22T14:31:06;2.63;;;1.95;;
71867;SDS011;59738;48.324;14.230;2023-02-22T14:33:50;2.42;;;2.00;;
71867;SDS011;59738;48.324;14.230;2023-02-22T14:36:21;2.57;;;2.13;;
71867;SDS011;59738;48.324;14.230;2023-02-22T14:38:49;2.60;;;2.00;;
71867;SDS011;59738;48.324;14.230;2023-02-22T14:41:20;2.67;;;2.28;;
71867;SDS011;59738;48.324;14.230;2023-02-22T14:43:53;3.83;;;2.17;;
71867;SDS011;59738;48.324;14.230;2023-02-22T14:46:22;2.95;;;2.00;;
71867;SDS011;59738;48.324;14.230;2023-02-22T14:48:53;4.10;;;2.17;;
71867;SDS011;59738;48.324;14.230;2023-02-22T14:51:24;3.67;;;1.88;;
71867;SDS011;59738;48.324;14.230;2023-02-22T14:53:55;3.45;;;2.53;;
71867;SDS011;59738;48.324;14.230;2023-02-22T14:56:29;2.08;;;1.88;;
71867;SDS011;59738;48.324;14.230;2023-02-22T14:59:05;5.82;;;2.65;;
71867;SDS011;59738;48.324;14.230;2023-02-22T15:01:39;2.30;;;1.73;;
71867;SDS011;59738;48.324;14.230;2023-02-22T15:04:18;2.65;;;2.25;;
71867;SDS011;59738;48.324;14.230;2023-02-22T15:06:47;6.03;;;2.03;;
71867;SDS011;59738;48.324;14.230;2023-02-22T15:09:16;3.80;;;1.67;;